createdAt,value
2022-10-05T00:01:53.405Z,101977.59
2022-10-05T00:04:23.532Z,101970.00
2022-10-05T00:06:56.749Z,101975.50
2022-10-05T00:09:24.330Z,101978.25
2022-10-05T00:11:51.910Z,101981.38
2022-10-05T00:14:31.655Z,101980.53
2022-10-05T00:16:59.141Z,101978.94
2022-10-05T00:19:32.796Z,101987.56
2022-10-05T00:22:06.518Z,101980.06
2022-10-05T00:24:33.713Z,101982.03
2022-10-05T00:27:02.226Z,101983.50
2022-10-05T00:29:29.349Z,101989.00
2022-10-05T00:31:58.201Z,101983.00
2022-10-05T00:34:25.885Z,101988.06
2022-10-05T00:36:52.914Z,101991.28
2022-10-05T00:39:20.237Z,101991.28
2022-10-05T00:42:16.055Z,101987.72
2022-10-05T00:45:13.269Z,101987.25
2022-10-05T00:47:49.429Z,101983.19
2022-10-05T00:50:36.626Z,101989.84
2022-10-05T00:53:16.035Z,101973.63
2022-10-05T00:55:58.286Z,101981.09
2022-10-05T00:58:26.595Z,101973.13
2022-10-05T01:01:22.069Z,101978.50
2022-10-05T01:04:14.158Z,101976.38
2022-10-05T01:07:00.315Z,101974.78
2022-10-05T01:09:38.167Z,101972.69
2022-10-05T01:12:37.763Z,101974.47
2022-10-05T01:15:21.145Z,101976.28
2022-10-05T01:18:14.449Z,101977.41
2022-10-05T01:21:02.856Z,101978.84
2022-10-05T01:24:02.090Z,101971.56
2022-10-05T01:27:08.880Z,101965.09
2022-10-05T01:29:52.142Z,101963.50
2022-10-05T01:32:39.413Z,101962.50
2022-10-05T01:35:12.644Z,101959.59
2022-10-05T01:37:45.940Z,101964.91
2022-10-05T01:40:31.746Z,101962.81
2022-10-05T01:43:17.462Z,101964.28
2022-10-05T01:45:50.526Z,101965.75
2022-10-05T01:48:17.541Z,101964.47
2022-10-05T01:51:06.537Z,101956.19
2022-10-05T01:53:56.017Z,101960.88
2022-10-05T01:57:00.879Z,101964.75
2022-10-05T02:00:07.908Z,101959.91
2022-10-05T02:02:44.928Z,101973.69
2022-10-05T02:05:20.442Z,101962.19
2022-10-05T02:08:16.398Z,101963.81
2022-10-05T02:11:03.097Z,101960.25
2022-10-05T02:13:34.357Z,101966.91
2022-10-05T02:16:07.520Z,101959.44
2022-10-05T02:18:43.788Z,101963.34
2022-10-05T02:21:11.302Z,101957.81
2022-10-05T02:23:41.839Z,101961.22
2022-10-05T02:26:11.575Z,101958.47
2022-10-05T02:28:48.576Z,101955.22
2022-10-05T02:31:29.666Z,101959.59
2022-10-05T02:34:24.722Z,101954.88
2022-10-05T02:37:21.550Z,101962.84
2022-10-05T02:40:01.620Z,101966.75
2022-10-05T02:42:56.551Z,101965.91
2022-10-05T02:46:08.015Z,101963.47
2022-10-05T02:49:18.021Z,101968.03
2022-10-05T02:52:16.795Z,101964.78
2022-10-05T02:55:19.512Z,101967.53
2022-10-05T02:57:55.787Z,101965.59
2022-10-05T03:00:27.176Z,101962.66
2022-10-05T03:03:28.272Z,101963.31
2022-10-05T03:06:00.733Z,101963.66
2022-10-05T03:08:44.951Z,101959.44
2022-10-05T03:11:54.625Z,101959.59
2022-10-05T03:14:58.264Z,101959.59
2022-10-05T03:17:35.029Z,101954.41
2022-10-05T03:20:22.889Z,101955.06
2022-10-05T03:22:59.080Z,101961.22
2022-10-05T03:25:41.422Z,101958.28
2022-10-05T03:28:25.255Z,101959.44
2022-10-05T03:31:03.299Z,101964.94
2022-10-05T03:33:56.830Z,101961.69
2022-10-05T03:36:38.846Z,101967.84
2022-10-05T03:39:17.691Z,101963.47
2022-10-05T03:41:56.173Z,101959.41
2022-10-05T03:44:43.404Z,101962.50
2022-10-05T03:47:42.985Z,101958.13
2022-10-05T03:50:34.959Z,101961.19
2022-10-05T03:53:19.293Z,101963.78
2022-10-05T03:55:59.005Z,101968.81
2022-10-05T03:58:31.957Z,101969.13
2022-10-05T04:01:05.792Z,101963.63
2022-10-05T04:03:42.354Z,101974.31
2022-10-05T04:06:22.670Z,101972.88
2022-10-05T04:09:02.292Z,101981.94
2022-10-05T04:11:36.000Z,101977.88
2022-10-05T04:14:07.528Z,101977.06
2022-10-05T04:17:12.273Z,101986.81
2022-10-05T04:19:45.288Z,101981.94
2022-10-05T04:22:43.394Z,101988.09
2022-10-05T04:25:19.494Z,101982.59
2022-10-05T04:28:06.331Z,101990.84
2022-10-05T04:30:38.872Z,101988.09
2022-10-05T04:33:09.545Z,101990.34
2022-10-05T04:36:13.299Z,101990.19
2022-10-05T04:38:40.284Z,101984.81
2022-10-05T04:41:33.087Z,101988.22
2022-10-05T04:44:17.526Z,101994.38
2022-10-05T04:47:02.316Z,101997.13
2022-10-05T04:49:48.432Z,101999.88
2022-10-05T04:52:27.699Z,102011.97
2022-10-05T04:55:04.665Z,102014.13
2022-10-05T04:57:45.206Z,102016.25
2022-10-05T05:00:25.098Z,102010.72
2022-10-05T05:03:15.649Z,102016.75
2022-10-05T05:06:15.288Z,102015.47
2022-10-05T05:08:53.357Z,102017.63
2022-10-05T05:11:52.934Z,102025.09
2022-10-05T05:14:44.662Z,102021.72
2022-10-05T05:17:13.238Z,102024.88
2022-10-05T05:20:21.017Z,102018.22
2022-10-05T05:22:57.633Z,102027.47
2022-10-05T05:25:36.821Z,102032.38
2022-10-05T05:28:20.610Z,102034.06
2022-10-05T05:30:57.430Z,102029.44
2022-10-05T05:33:41.289Z,102042.00
2022-10-05T05:36:22.858Z,102039.88
2022-10-05T05:39:49.352Z,102047.19
2022-10-05T05:42:56.625Z,102048.56
2022-10-05T05:45:40.754Z,102056.41
2022-10-05T05:48:26.822Z,102051.16
2022-10-05T05:51:13.131Z,102064.66
2022-10-05T05:53:59.214Z,102070.03
2022-10-05T05:56:34.855Z,102061.50
2022-10-05T05:59:16.401Z,102072.16
2022-10-05T06:01:53.082Z,102074.56
2022-10-05T06:04:31.458Z,102077.19
2022-10-05T06:07:03.943Z,102083.06
2022-10-05T06:09:38.134Z,102085.53
2022-10-05T06:12:38.556Z,102090.25
2022-10-05T06:15:48.100Z,102093.75
2022-10-05T06:18:21.459Z,102096.09
2022-10-05T06:21:02.468Z,102108.28
2022-10-05T06:23:46.665Z,102107.94
2022-10-05T06:26:21.457Z,102102.28
2022-10-05T06:28:59.382Z,102110.41
2022-10-05T06:31:41.897Z,102115.22
2022-10-05T06:34:27.960Z,102113.81
2022-10-05T06:37:11.063Z,102104.78
2022-10-05T06:39:52.152Z,102106.53
2022-10-05T06:42:34.722Z,102109.69
2022-10-05T06:45:45.596Z,102112.06
2022-10-05T06:48:41.862Z,102113.00
2022-10-05T06:51:52.088Z,102128.13
2022-10-05T06:54:50.151Z,102126.72
2022-10-05T06:57:22.291Z,102130.38
2022-10-05T06:59:58.086Z,102127.47
2022-10-05T07:02:39.262Z,102133.25
2022-10-05T07:05:28.714Z,102135.28
2022-10-05T07:08:00.584Z,102140.22
2022-10-05T07:10:37.457Z,102143.13
2022-10-05T07:13:36.623Z,102140.56
2022-10-05T07:16:38.724Z,102147.63
2022-10-05T07:19:22.349Z,102150.47
2022-10-05T07:22:40.729Z,102148.09
2022-10-05T07:25:28.413Z,102159.16
2022-10-05T07:28:05.211Z,102148.09
2022-10-05T07:30:49.082Z,102156.88
2022-10-05T07:33:27.240Z,102162.28
2022-10-05T07:36:54.405Z,102158.25
2022-10-05T07:39:59.222Z,102164.47
2022-10-05T07:42:50.483Z,102172.44
2022-10-05T07:45:29.604Z,102164.88
2022-10-05T07:48:33.572Z,102165.09
2022-10-05T07:51:20.045Z,102173.94
2022-10-05T07:54:25.896Z,102175.91
2022-10-05T07:56:59.056Z,102178.56
2022-10-05T07:59:37.292Z,102176.97
2022-10-05T08:02:22.993Z,102174.22
2022-10-05T08:05:02.655Z,102174.91
2022-10-05T08:07:34.786Z,102173.16
2022-10-05T08:10:22.007Z,102183.41
2022-10-05T08:12:59.122Z,102180.03
2022-10-05T08:15:43.184Z,102177.41
2022-10-05T08:18:25.399Z,102181.69
2022-10-05T08:20:58.238Z,102185.03
2022-10-05T08:23:38.780Z,102193.09
2022-10-05T08:26:27.315Z,102195.13
2022-10-05T08:29:30.026Z,102195.47
2022-10-05T08:32:30.022Z,102204.38
2022-10-05T08:35:35.899Z,102206.66
2022-10-05T08:38:10.734Z,102209.06
2022-10-05T08:41:01.114Z,102203.66
2022-10-05T08:43:59.010Z,102209.00
2022-10-05T08:46:47.667Z,102217.81
2022-10-05T08:49:23.828Z,102221.31
2022-10-05T08:52:12.304Z,102219.94
2022-10-05T08:54:47.723Z,102224.13
2022-10-05T08:57:29.931Z,102225.06
2022-10-05T09:00:26.072Z,102225.28
2022-10-05T09:03:08.850Z,102221.09
2022-10-05T09:05:42.300Z,102228.50
2022-10-05T09:08:27.773Z,102228.06
2022-10-05T09:11:17.309Z,102227.56
2022-10-05T09:14:14.838Z,102231.75
2022-10-05T09:16:50.828Z,102223.19
2022-10-05T09:19:42.884Z,102230.38
2022-10-05T09:22:33.636Z,102231.63
2022-10-05T09:25:24.144Z,102227.59
2022-10-05T09:27:59.046Z,102226.53
2022-10-05T09:30:42.969Z,102221.69
2022-10-05T09:33:25.935Z,102225.38
2022-10-05T09:36:15.901Z,102230.03
2022-10-05T09:39:20.125Z,102237.31
2022-10-05T09:42:22.392Z,102230.25
2022-10-05T09:45:26.711Z,102234.09
2022-10-05T09:48:20.506Z,102228.03
2022-10-05T09:50:50.268Z,102230.38
2022-10-05T09:54:05.658Z,102235.22
2022-10-05T09:56:56.658Z,102225.75
2022-10-05T09:59:39.602Z,102226.53
2022-10-05T10:02:17.153Z,102223.66
2022-10-05T10:05:09.387Z,102221.34
2022-10-05T10:08:10.449Z,102206.78
2022-10-05T10:10:37.846Z,102205.84
2022-10-05T10:13:13.692Z,102209.09
2022-10-05T10:15:59.787Z,102213.59
2022-10-05T10:18:40.901Z,102205.00
2022-10-05T10:21:29.630Z,102205.75
2022-10-05T10:24:10.663Z,102204.91
2022-10-05T10:26:49.853Z,102203.88
2022-10-05T10:29:38.232Z,102202.31
2022-10-05T10:32:05.496Z,102196.88
2022-10-05T10:35:14.350Z,102199.31
2022-10-05T10:38:11.983Z,102191.00
2022-10-05T10:40:56.322Z,102196.47
2022-10-05T10:44:00.358Z,102192.66
2022-10-05T10:46:48.962Z,102190.91
2022-10-05T10:49:34.416Z,102186.31
2022-10-05T10:52:19.329Z,102185.81
2022-10-05T10:55:31.219Z,102179.66
2022-10-05T10:58:37.937Z,102180.88
2022-10-05T11:01:28.935Z,102187.44
2022-10-05T11:04:22.870Z,102190.59
2022-10-05T11:07:37.544Z,102191.13
2022-10-05T11:10:29.530Z,102191.97
2022-10-05T11:13:21.810Z,102190.53
2022-10-05T11:15:55.390Z,102191.19
2022-10-05T11:18:42.321Z,102189.78
2022-10-05T11:21:26.514Z,102183.25
2022-10-05T11:24:23.029Z,102188.59
2022-10-05T11:30:17.056Z,102179.69
2022-10-05T11:32:47.014Z,102176.88
2022-10-05T11:35:41.617Z,102172.56
2022-10-05T11:38:46.281Z,102164.09
2022-10-05T11:41:22.773Z,102178.41
2022-10-05T11:44:08.138Z,102171.47
2022-10-05T11:46:38.317Z,102171.22
2022-10-05T11:49:20.483Z,102168.75
2022-10-05T11:51:52.663Z,102173.63
2022-10-05T11:55:09.421Z,102160.06
2022-10-05T11:57:50.466Z,102156.47
2022-10-05T12:00:19.066Z,102157.00
2022-10-05T12:03:00.583Z,102159.69
2022-10-05T12:05:42.067Z,102160.28
2022-10-05T12:08:35.966Z,102154.25
2022-10-05T12:11:08.792Z,102153.34
2022-10-05T12:13:56.272Z,102151.63
2022-10-05T12:16:35.040Z,102150.59
2022-10-05T12:19:29.890Z,102153.59
2022-10-05T12:22:04.327Z,102143.88
2022-10-05T12:24:37.287Z,102150.81
2022-10-05T12:27:25.510Z,102153.50
2022-10-05T12:30:11.703Z,102148.28
2022-10-05T12:33:01.903Z,102148.25
2022-10-05T12:35:50.242Z,102149.63
2022-10-05T12:38:46.775Z,102152.91
2022-10-05T12:41:19.929Z,102153.38
2022-10-05T12:44:09.259Z,102138.22
2022-10-05T12:47:11.233Z,102140.84
2022-10-05T12:49:44.046Z,102143.28
2022-10-05T12:52:32.233Z,102148.84
2022-10-05T12:55:29.104Z,102150.59
2022-10-05T12:58:19.114Z,102145.63
2022-10-05T13:01:15.202Z,102146.66
2022-10-05T13:04:17.801Z,102149.75
2022-10-05T13:07:08.562Z,102154.41
2022-10-05T13:10:04.295Z,102148.09
2022-10-05T13:12:41.671Z,102154.09
2022-10-05T13:15:36.360Z,102147.47
2022-10-05T13:18:29.249Z,102158.94
2022-10-05T13:21:18.692Z,102146.34
2022-10-05T13:24:07.401Z,102148.63
2022-10-05T13:26:37.981Z,102154.09
2022-10-05T13:29:13.327Z,102144.47
2022-10-05T13:32:13.984Z,102142.16
2022-10-05T13:34:50.673Z,102151.31
2022-10-05T13:37:38.551Z,102143.91
2022-10-05T13:40:24.955Z,102138.72
2022-10-05T13:43:00.931Z,102146.66
2022-10-05T13:45:55.701Z,102140.78
2022-10-05T13:48:37.011Z,102130.75
2022-10-05T13:51:16.236Z,102136.75
2022-10-05T13:53:56.178Z,102138.28
2022-10-05T13:56:31.199Z,102133.41
2022-10-05T13:59:11.986Z,102135.38
2022-10-05T14:01:49.555Z,102135.13
2022-10-05T14:04:29.835Z,102135.38
2022-10-05T14:06:57.432Z,102141.25
2022-10-05T14:09:35.130Z,102136.53
2022-10-05T14:12:05.021Z,102136.28
2022-10-05T14:14:42.714Z,102133.03
2022-10-05T14:17:32.186Z,102139.66
2022-10-05T14:20:03.612Z,102133.25
2022-10-05T14:22:40.866Z,102136.41
2022-10-05T14:25:07.930Z,102142.19
2022-10-05T14:27:49.246Z,102137.09
2022-10-05T14:30:16.410Z,102142.31
2022-10-05T14:33:03.748Z,102144.13
2022-10-05T14:35:45.061Z,102145.13
2022-10-05T14:38:32.037Z,102144.78
2022-10-05T14:41:17.652Z,102138.66
2022-10-05T14:44:12.578Z,102141.97
2022-10-05T14:46:52.711Z,102133.00
2022-10-05T14:49:30.671Z,102143.94
2022-10-05T14:51:58.863Z,102134.13
2022-10-05T14:54:25.959Z,102138.16
2022-10-05T14:57:26.297Z,102139.78
2022-10-05T15:00:19.043Z,102140.00
2022-10-05T15:02:49.133Z,102134.13
2022-10-05T15:05:26.894Z,102134.13
2022-10-05T15:08:01.864Z,102131.72
2022-10-05T15:10:29.755Z,102135.03
2022-10-05T15:13:11.204Z,102141.50
2022-10-05T15:16:00.404Z,102143.34
2022-10-05T15:18:37.560Z,102139.16
2022-10-05T15:21:42.455Z,102137.16
2022-10-05T15:24:20.416Z,102135.41
2022-10-05T15:26:55.042Z,102136.09
2022-10-05T15:29:55.130Z,102147.19
2022-10-05T15:32:42.776Z,102136.63
2022-10-05T15:35:26.465Z,102137.78
2022-10-05T15:38:12.226Z,102137.16
2022-10-05T15:40:59.576Z,102136.00
2022-10-05T15:43:46.137Z,102138.88
2022-10-05T15:46:34.586Z,102141.50
2022-10-05T15:49:19.978Z,102129.47
2022-10-05T15:52:02.022Z,102133.06
2022-10-05T15:55:06.524Z,102133.41
2022-10-05T15:57:39.104Z,102147.59
2022-10-05T16:00:18.963Z,102148.94
2022-10-05T16:02:55.225Z,102147.97
2022-10-05T16:06:01.986Z,102145.56
2022-10-05T16:09:06.125Z,102153.38
2022-10-05T16:12:30.395Z,102149.19
2022-10-05T16:15:06.839Z,102153.47
2022-10-05T16:17:54.337Z,102156.41
2022-10-05T16:20:35.964Z,102150.41
2022-10-05T16:23:27.967Z,102149.59
2022-10-05T16:26:09.315Z,102149.94
2022-10-05T16:29:08.850Z,102148.19
2022-10-05T16:31:54.657Z,102158.41
2022-10-05T16:34:50.454Z,102158.75
2022-10-05T16:37:47.360Z,102157.59
2022-10-05T16:40:23.623Z,102157.16
2022-10-05T16:43:15.896Z,102169.69
2022-10-05T16:45:52.234Z,102167.59
2022-10-05T16:48:37.059Z,102167.44
2022-10-05T16:51:24.342Z,102164.69
2022-10-05T16:54:03.584Z,102165.66
2022-10-05T16:56:45.593Z,102179.81
2022-10-05T16:59:41.678Z,102172.66
2022-10-05T17:02:27.625Z,102174.28
2022-10-05T17:05:38.843Z,102171.69
2022-10-05T17:08:41.418Z,102175.28
2022-10-05T17:11:20.207Z,102171.22
2022-10-05T17:14:32.053Z,102168.78
2022-10-05T17:17:28.818Z,102171.22
2022-10-05T17:20:23.835Z,102164.91
2022-10-05T17:22:55.897Z,102159.38
2022-10-05T17:25:47.898Z,102166.00
2022-10-05T17:28:51.836Z,102176.28
2022-10-05T17:31:22.887Z,102171.91
2022-10-05T17:33:59.285Z,102170.28
2022-10-05T17:36:50.642Z,102171.25
2022-10-05T17:39:49.292Z,102172.56
2022-10-05T17:42:31.682Z,102169.31
2022-10-05T17:45:20.064Z,102173.53
2022-10-05T17:48:05.323Z,102178.59
2022-10-05T17:51:07.399Z,102185.75
2022-10-05T17:53:53.144Z,102183.19
2022-10-05T17:56:22.753Z,102181.22
2022-10-05T17:58:54.719Z,102190.31
2022-10-05T18:01:33.996Z,102189.03
2022-10-05T18:04:13.419Z,102188.38
2022-10-05T18:06:48.256Z,102194.59
2022-10-05T18:09:21.175Z,102190.69
2022-10-05T18:12:19.231Z,102197.69
2022-10-05T18:14:55.349Z,102203.69
2022-10-05T18:17:45.191Z,102208.09
2022-10-05T18:20:22.014Z,102210.69
2022-10-05T18:22:51.231Z,102215.50
2022-10-05T18:25:39.709Z,102207.91
2022-10-05T18:28:25.770Z,102215.22
2022-10-05T18:31:30.808Z,102215.13
2022-10-05T18:34:13.482Z,102216.75
2022-10-05T18:36:59.113Z,102222.31
2022-10-05T18:39:58.415Z,102231.41
2022-10-05T18:43:00.616Z,102220.38
2022-10-05T18:45:37.926Z,102230.13
2022-10-05T18:48:50.049Z,102232.72
2022-10-05T18:51:53.912Z,102228.66
2022-10-05T18:54:32.280Z,102234.81
2022-10-05T18:57:07.607Z,102245.06
2022-10-05T19:00:27.595Z,102245.69
2022-10-05T19:03:01.071Z,102246.00
2022-10-05T19:05:54.491Z,102246.34
2022-10-05T19:08:40.799Z,102255.78
2022-10-05T19:11:36.488Z,102263.56
2022-10-05T19:14:31.674Z,102264.22
2022-10-05T19:17:09.792Z,102268.94
2022-10-05T19:20:01.964Z,102262.91
2022-10-05T19:23:12.342Z,102281.94
2022-10-05T19:25:53.217Z,102281.13
2022-10-05T19:28:20.838Z,102281.44
2022-10-05T19:31:29.032Z,102283.38
2022-10-05T19:34:33.401Z,102283.38
2022-10-05T19:37:13.309Z,102293.63
2022-10-05T19:39:55.787Z,102292.31
2022-10-05T19:42:28.971Z,102300.91
2022-10-05T19:44:57.099Z,102304.50
2022-10-05T19:47:44.896Z,102300.91
2022-10-05T19:50:28.442Z,102309.69
2022-10-05T19:53:08.337Z,102304.16
2022-10-05T19:55:41.845Z,102308.22
2022-10-05T19:58:24.780Z,102306.28
2022-10-05T20:01:04.575Z,102311.63
2022-10-05T20:03:37.123Z,102314.38
2022-10-05T20:06:07.134Z,102320.72
2022-10-05T20:08:54.502Z,102320.72
2022-10-05T20:11:23.869Z,102322.66
2022-10-05T20:13:53.927Z,102325.78
2022-10-05T20:16:53.192Z,102327.22
2022-10-05T20:19:49.878Z,102334.19
2022-10-05T20:22:39.982Z,102321.03
2022-10-05T20:25:23.826Z,102328.81
2022-10-05T20:27:57.907Z,102322.47
2022-10-05T20:30:29.269Z,102323.28
2022-10-05T20:33:03.834Z,102336.63
2022-10-05T20:35:32.397Z,102336.63
2022-10-05T20:38:00.359Z,102339.38
2022-10-05T20:40:29.830Z,102337.09
2022-10-05T20:42:58.428Z,102342.31
2022-10-05T20:45:26.100Z,102334.19
2022-10-05T20:47:53.347Z,102339.06
2022-10-05T20:50:22.494Z,102342.00
2022-10-05T20:52:49.783Z,102342.50
2022-10-05T20:55:18.007Z,102337.94
2022-10-05T20:57:46.346Z,102338.13
2022-10-05T21:00:13.981Z,102337.13
2022-10-05T21:02:41.252Z,102340.91
2022-10-05T21:05:09.059Z,102345.44
2022-10-05T21:07:36.214Z,102335.72
2022-10-05T21:10:04.299Z,102332.97
2022-10-05T21:12:33.018Z,102334.59
2022-10-05T21:15:00.555Z,102332.31
2022-10-05T21:17:27.843Z,102333.94
2022-10-05T21:19:55.080Z,102341.41
2022-10-05T21:22:22.620Z,102329.56
2022-10-05T21:24:49.724Z,102333.59
2022-10-05T21:27:17.103Z,102326.63
2022-10-05T21:29:45.539Z,102332.66
2022-10-05T21:32:12.620Z,102334.25
2022-10-05T21:34:40.540Z,102332.00
2022-10-05T21:37:08.297Z,102338.34
2022-10-05T21:39:36.858Z,102335.88
2022-10-05T21:42:04.297Z,102339.13
2022-10-05T21:44:31.428Z,102342.25
2022-10-05T21:46:58.544Z,102338.34
2022-10-05T21:49:27.220Z,102334.25
2022-10-05T21:51:54.664Z,102329.38
2022-10-05T21:54:22.978Z,102336.38
2022-10-05T21:56:52.837Z,102326.47
2022-10-05T21:59:22.662Z,102326.00
2022-10-05T22:01:49.832Z,102324.97
2022-10-05T22:04:17.037Z,102321.72
2022-10-05T22:06:44.401Z,102329.00
2022-10-05T22:09:12.278Z,102323.31
2022-10-05T22:11:39.379Z,102323.16
2022-10-05T22:14:06.624Z,102320.06
2022-10-05T22:16:37.447Z,102323.81
2022-10-05T22:19:07.142Z,102320.88
2022-10-05T22:21:41.806Z,102323.16
2022-10-05T22:24:11.798Z,102315.00
2022-10-05T22:26:42.013Z,102323.13
2022-10-05T22:29:10.500Z,102326.53
2022-10-05T22:31:40.531Z,102310.94
2022-10-05T22:34:07.803Z,102316.28
2022-10-05T22:36:36.094Z,102312.56
2022-10-05T22:39:03.963Z,102316.25
2022-10-05T22:41:31.022Z,102320.28
2022-10-05T22:43:58.217Z,102316.25
2022-10-05T22:46:25.392Z,102319.31
2022-10-05T22:48:52.626Z,102321.59
2022-10-05T22:51:19.698Z,102320.75
2022-10-05T22:53:46.985Z,102312.81
2022-10-05T22:56:14.360Z,102315.41
2022-10-05T22:58:42.582Z,102312.13
2022-10-05T23:01:12.240Z,102314.41
2022-10-05T23:03:39.627Z,102312.28
2022-10-05T23:06:09.284Z,102314.50
2022-10-05T23:08:39.467Z,102307.19
2022-10-05T23:11:11.616Z,102310.25
2022-10-05T23:13:39.468Z,102310.09
2022-10-05T23:16:08.636Z,102302.16
2022-10-05T23:18:35.950Z,102305.19
2022-10-05T23:21:03.866Z,102304.41
2022-10-05T23:23:31.008Z,102292.84
2022-10-05T23:26:02.062Z,102297.09
2022-10-05T23:28:30.269Z,102305.66
2022-10-05T23:31:05.846Z,102300.47
2022-10-05T23:33:34.118Z,102290.56
2022-10-05T23:36:10.252Z,102288.94
2022-10-05T23:38:37.772Z,102289.28
2022-10-05T23:41:05.917Z,102279.34
2022-10-05T23:43:33.674Z,102285.19
2022-10-05T23:46:01.404Z,102279.19
2022-10-05T23:48:30.824Z,102279.19
2022-10-05T23:50:58.612Z,102272.84
2022-10-05T23:53:26.763Z,102278.38
2022-10-05T23:55:54.516Z,102272.84
2022-10-05T23:58:23.127Z,102273.66
